THY618 LTAY-LTFM
Flight info
| Callsign | THY618 |
|---|---|
| Flight time | N/A |
| Altitude | 34000 |
| Route | ATGIT UT30 OTSIX UM855 SISPI |
| Aircraft | A320/M-SDE3FGHIRWY/LB1 |
Departure
| Time | 2026-04-16 04:52 |
|---|---|
| Airport | Çardak Airport (LTAY) |
Arrival
| Time | N/A |
|---|---|
| Airport | İstanbul Airport (LTFM) |
| Time | Latitude | Longitude | Altitude | Speed | Heading |
|---|---|---|---|---|---|
| 2026-04-16 04:44 | 37.77493 | 29.68969 | 2795 ft | 0 kts | 148° |
| 2026-04-16 04:46 | 37.77495 | 29.68968 | 2795 ft | 2 kts | 148° |
| 2026-04-16 04:47 | 37.77509 | 29.68956 | 2798 ft | 3 kts | 146° |
| 2026-04-16 04:47 | 37.77522 | 29.68940 | 2795 ft | 3 kts | 110° |
| 2026-04-16 04:47 | 37.77525 | 29.68918 | 2795 ft | 3 kts | 75° |
| 2026-04-16 04:47 | 37.77518 | 29.68898 | 2797 ft | 2 kts | 43° |
| 2026-04-16 04:48 | 37.77508 | 29.68887 | 2797 ft | 0 kts | 43° |
| 2026-04-16 04:49 | 37.77509 | 29.68888 | 2797 ft | 1 kts | 43° |
| 2026-04-16 04:49 | 37.77529 | 29.68910 | 2796 ft | 7 kts | 38° |
| 2026-04-16 04:49 | 37.77592 | 29.68891 | 2799 ft | 13 kts | 327° |
| 2026-04-16 04:50 | 37.77685 | 29.68815 | 2800 ft | 19 kts | 328° |
| 2026-04-16 04:50 | 37.77807 | 29.68728 | 2796 ft | 18 kts | 331° |
| 2026-04-16 04:50 | 37.77866 | 29.68693 | 2799 ft | 8 kts | 7° |
| 2026-04-16 04:50 | 37.77905 | 29.68761 | 2803 ft | 14 kts | 57° |
| 2026-04-16 04:51 | 37.78033 | 29.69026 | 2794 ft | 68 kts | 59° |
| 2026-04-16 04:51 | 37.78385 | 29.69763 | 2793 ft | 125 kts | 59° |
| 2026-04-16 04:51 | 37.78919 | 29.70872 | 2832 ft | 164 kts | 57° |
| 2026-04-16 04:51 | 37.79524 | 29.72085 | 3375 ft | 164 kts | 58° |
| 2026-04-16 04:52 | 37.80129 | 29.73329 | 3928 ft | 168 kts | 58° |
| 2026-04-16 04:52 | 37.80745 | 29.74578 | 4537 ft | 167 kts | 59° |
| 2026-04-16 04:52 | 37.81364 | 29.75880 | 4885 ft | 183 kts | 59° |
| 2026-04-16 04:52 | 37.82054 | 29.77356 | 5126 ft | 206 kts | 60° |
| 2026-04-16 04:53 | 37.82822 | 29.79001 | 5421 ft | 226 kts | 59° |
| 2026-04-16 04:53 | 37.83667 | 29.80797 | 5841 ft | 245 kts | 59° |
| 2026-04-16 04:53 | 37.84551 | 29.82668 | 6570 ft | 250 kts | 59° |
| 2026-04-16 04:53 | 37.85453 | 29.84568 | 7293 ft | 254 kts | 58° |
| 2026-04-16 04:54 | 37.86556 | 29.86327 | 7983 ft | 258 kts | 38° |
| 2026-04-16 04:54 | 37.88130 | 29.87400 | 8700 ft | 259 kts | 13° |
| 2026-04-16 04:54 | 37.89916 | 29.87569 | 9426 ft | 259 kts | 349° |
| 2026-04-16 04:54 | 37.91597 | 29.86810 | 10157 ft | 258 kts | 328° |
| 2026-04-16 04:55 | 37.93136 | 29.85640 | 10870 ft | 258 kts | 327° |
| 2026-04-16 04:55 | 37.94679 | 29.84468 | 11579 ft | 259 kts | 327° |
| 2026-04-16 04:55 | 37.96265 | 29.83372 | 12279 ft | 261 kts | 333° |
| 2026-04-16 04:55 | 37.98019 | 29.82555 | 12687 ft | 281 kts | 340° |
| 2026-04-16 04:56 | 37.99979 | 29.81864 | 12878 ft | 304 kts | 341° |
| 2026-04-16 04:56 | 38.02066 | 29.81141 | 13028 ft | 327 kts | 341° |
| 2026-04-16 04:56 | 38.04315 | 29.80369 | 13387 ft | 340 kts | 341° |
| 2026-04-16 04:56 | 38.06652 | 29.79572 | 14041 ft | 345 kts | 341° |
| 2026-04-16 04:57 | 38.08947 | 29.78787 | 14666 ft | 348 kts | 341° |
| 2026-04-16 04:57 | 38.11300 | 29.77978 | 15245 ft | 352 kts | 341° |
| 2026-04-16 04:57 | 38.13679 | 29.77155 | 15814 ft | 357 kts | 341° |
| 2026-04-16 04:57 | 38.16087 | 29.76319 | 16372 ft | 361 kts | 341° |
| 2026-04-16 04:58 | 38.18545 | 29.75557 | 16946 ft | 367 kts | 348° |
| 2026-04-16 04:58 | 38.20274 | 29.75339 | 17329 ft | 373 kts | 355° |
| 2026-04-16 04:58 | 38.22890 | 29.75561 | 17903 ft | 381 kts | 7° |
| 2026-04-16 04:58 | 38.26369 | 29.76412 | 18673 ft | 387 kts | 8° |
| 2026-04-16 04:59 | 38.28161 | 29.76853 | 19041 ft | 389 kts | 8° |
| 2026-04-16 04:59 | 38.30832 | 29.77512 | 19591 ft | 393 kts | 8° |
| 2026-04-16 04:59 | 38.33533 | 29.78177 | 20150 ft | 397 kts | 8° |
| 2026-04-16 04:59 | 38.36257 | 29.78847 | 20710 ft | 401 kts | 7° |
| 2026-04-16 05:00 | 38.39007 | 29.79523 | 21231 ft | 404 kts | 7° |
| 2026-04-16 05:00 | 38.42690 | 29.80427 | 21893 ft | 410 kts | 7° |
| 2026-04-16 05:00 | 38.44586 | 29.80895 | 22216 ft | 412 kts | 7° |
| 2026-04-16 05:00 | 38.47415 | 29.81592 | 22693 ft | 416 kts | 7° |
| 2026-04-16 05:01 | 38.50271 | 29.82294 | 23175 ft | 420 kts | 7° |
| 2026-04-16 05:01 | 38.53154 | 29.83005 | 23645 ft | 423 kts | 7° |
| 2026-04-16 05:01 | 38.56056 | 29.83723 | 24042 ft | 427 kts | 7° |
| 2026-04-16 05:01 | 38.58981 | 29.84445 | 24445 ft | 429 kts | 7° |
| 2026-04-16 05:02 | 38.61922 | 29.85172 | 24840 ft | 432 kts | 7° |
| 2026-04-16 05:02 | 38.64878 | 29.85902 | 25245 ft | 434 kts | 6° |
| 2026-04-16 05:02 | 38.67849 | 29.86638 | 25631 ft | 436 kts | 6° |
| 2026-04-16 05:02 | 38.70835 | 29.87374 | 26017 ft | 438 kts | 6° |
| 2026-04-16 05:03 | 38.73841 | 29.88115 | 26398 ft | 441 kts | 6° |
| 2026-04-16 05:03 | 38.76858 | 29.88862 | 26787 ft | 443 kts | 6° |
| 2026-04-16 05:03 | 38.79894 | 29.89616 | 27175 ft | 445 kts | 6° |
| 2026-04-16 05:04 | 38.86003 | 29.91136 | 27933 ft | 449 kts | 6° |
| 2026-04-16 05:04 | 38.89080 | 29.91905 | 28306 ft | 452 kts | 6° |
| 2026-04-16 05:04 | 38.92173 | 29.92677 | 28659 ft | 454 kts | 5° |
| 2026-04-16 05:04 | 38.95280 | 29.93451 | 28993 ft | 456 kts | 5° |
| 2026-04-16 05:05 | 38.98403 | 29.94229 | 29335 ft | 458 kts | 5° |
| 2026-04-16 05:05 | 39.01542 | 29.95009 | 29673 ft | 460 kts | 5° |
| 2026-04-16 05:05 | 39.04684 | 29.95792 | 30127 ft | 460 kts | 5° |
| 2026-04-16 05:05 | 39.07823 | 29.96580 | 30546 ft | 459 kts | 5° |
| 2026-04-16 05:06 | 39.10954 | 29.97368 | 30927 ft | 459 kts | 5° |
| 2026-04-16 05:06 | 39.14089 | 29.98157 | 31314 ft | 459 kts | 5° |
| 2026-04-16 05:06 | 39.17222 | 29.98947 | 31700 ft | 459 kts | 4° |
| 2026-04-16 05:06 | 39.20356 | 29.99738 | 32103 ft | 459 kts | 4° |
| 2026-04-16 05:07 | 39.23484 | 30.00529 | 32519 ft | 458 kts | 4° |
| 2026-04-16 05:07 | 39.26615 | 30.01321 | 32942 ft | 458 kts | 4° |
| 2026-04-16 05:07 | 39.29737 | 30.02109 | 33362 ft | 457 kts | 4° |
| 2026-04-16 05:07 | 39.32857 | 30.02897 | 33796 ft | 457 kts | 3° |
| 2026-04-16 05:08 | 39.35977 | 30.03684 | 34090 ft | 457 kts | 3° |
| 2026-04-16 05:08 | 39.42242 | 30.04834 | 34139 ft | 448 kts | 352° |
| 2026-04-16 05:09 | 39.48253 | 30.03883 | 34139 ft | 433 kts | 339° |
| 2026-04-16 05:09 | 39.54126 | 30.02131 | 34135 ft | 433 kts | 339° |
| 2026-04-16 05:10 | 39.60008 | 30.00401 | 34139 ft | 433 kts | 339° |
| 2026-04-16 05:10 | 39.65889 | 29.98666 | 34140 ft | 433 kts | 340° |
| 2026-04-16 05:11 | 39.71772 | 29.96925 | 34144 ft | 433 kts | 340° |
| 2026-04-16 05:11 | 39.77541 | 29.94851 | 34155 ft | 424 kts | 330° |
| 2026-04-16 05:12 | 39.82945 | 29.91813 | 34146 ft | 422 kts | 329° |
| 2026-04-16 05:12 | 39.88335 | 29.88769 | 34151 ft | 422 kts | 330° |
| 2026-04-16 05:13 | 39.93720 | 29.85744 | 34159 ft | 421 kts | 330° |